Time;durP1;ratioP1;P1;durP2;ratioP2;P2;SDS_P1;SDS_P2;PMS_P1;PMS_P2;Temp;Humidity;BMP_temperature;BMP_pressure;BME280_temperature;BME280_humidity;BME280_pressure;Samples;Min_cycle;Max_cycle;Signal;HPM_P1;HPM_P2
2022/09/03 00:00:55;;;;;;;2.40;1.00;;;15.90;99.90;;;;;;5057858;28;20595;-70
2022/09/03 00:03:35;;;;;;;3.65;1.20;;;15.90;99.90;;;;;;5055408;28;20178;-72
2022/09/03 00:06:15;;;;;;;2.70;1.17;;;15.90;99.90;;;;;;5059158;28;20646;-70
2022/09/03 00:08:58;;;;;;;2.30;1.30;;;15.80;99.90;;;;;;5059223;28;20219;-70
2022/09/03 00:11:34;;;;;;;2.30;1.10;;;15.80;99.90;;;;;;5057670;28;20219;-70
2022/09/03 00:14:21;;;;;;;1.52;1.05;;;15.80;99.90;;;;;;5058647;28;20210;-71
2022/09/03 00:16:57;;;;;;;2.30;1.25;;;15.70;99.90;;;;;;5060781;28;20696;-70
2022/09/03 00:19:35;;;;;;;3.08;1.15;;;15.70;99.90;;;;;;5056755;28;20676;-71
2022/09/03 00:22:11;;;;;;;2.78;1.20;;;15.70;99.90;;;;;;5058646;28;20253;-70
2022/09/03 00:24:39;;;;;;;5.65;1.38;;;15.70;99.90;;;;;;5058706;28;20586;-71
2022/09/03 00:27:12;;;;;;;1.75;1.33;;;15.70;99.90;;;;;;5058550;28;20167;-70
2022/09/03 00:30:14;;;;;;;2.33;1.40;;;15.60;99.90;;;;;;5059589;28;20171;-70
2022/09/03 00:33:08;;;;;;;2.40;1.38;;;15.60;99.90;;;;;;5048195;28;20289;-68
2022/09/03 00:35:46;;;;;;;4.35;1.35;;;15.50;99.90;;;;;;5059400;28;20662;-71
2022/09/03 00:38:12;;;;;;;1.88;1.10;;;15.60;99.90;;;;;;5057886;28;20219;-71
2022/09/03 00:41:05;;;;;;;3.03;1.35;;;15.50;99.90;;;;;;5060483;28;20922;-70
2022/09/03 00:44:14;;;;;;;3.17;1.17;;;15.50;99.90;;;;;;5057203;28;20298;-70
2022/09/03 00:47:03;;;;;;;1.90;1.08;;;15.40;99.90;;;;;;5040364;28;20210;-68
2022/09/03 00:50:03;;;;;;;4.10;1.10;;;15.40;99.90;;;;;;5061326;28;20566;-71
2022/09/03 00:52:53;;;;;;;2.88;1.23;;;15.40;99.90;;;;;;5059587;28;20231;-70
2022/09/03 00:55:37;;;;;;;3.72;1.33;;;15.30;99.90;;;;;;5056776;28;20294;-71
2022/09/03 00:58:30;;;;;;;4.72;1.27;;;15.30;99.90;;;;;;5056477;28;20230;-72
2022/09/03 01:00:55;;;;;;;1.65;0.98;;;15.30;99.90;;;;;;5054178;28;20207;-70
2022/09/03 01:03:47;;;;;;;2.40;1.30;;;15.20;99.90;;;;;;5059520;28;20172;-71
2022/09/03 01:06:32;;;;;;;1.35;1.00;;;15.20;99.90;;;;;;5056440;28;20563;-71
2022/09/03 01:09:16;;;;;;;2.50;1.25;;;15.20;99.90;;;;;;5059548;28;20211;-70
2022/09/03 01:11:58;;;;;;;2.65;1.00;;;15.20;99.90;;;;;;5065688;28;20209;-69
2022/09/03 01:14:54;;;;;;;2.53;1.30;;;15.20;99.90;;;;;;5063702;28;20206;-70
2022/09/03 01:17:43;;;;;;;2.67;1.00;;;15.10;99.90;;;;;;5060319;28;20203;-71
2022/09/03 01:20:53;;;;;;;1.38;1.05;;;15.10;99.90;;;;;;5061419;28;20208;-70
2022/09/03 01:23:39;;;;;;;1.40;1.20;;;15.10;99.90;;;;;;5062187;28;20253;-70
2022/09/03 01:26:22;;;;;;;1.92;1.00;;;15.10;99.90;;;;;;5060042;28;20196;-70
2022/09/03 01:29:09;;;;;;;2.45;1.10;;;15.10;99.90;;;;;;5056334;28;20268;-70
2022/09/03 01:31:56;;;;;;;2.20;1.10;;;15.00;99.90;;;;;;5058578;28;20624;-71
2022/09/03 01:34:28;;;;;;;4.88;1.33;;;15.00;99.90;;;;;;5060361;28;20199;-70
2022/09/03 01:37:18;;;;;;;2.45;1.23;;;15.00;99.90;;;;;;5063750;28;20207;-71
2022/09/03 01:40:16;;;;;;;2.50;1.48;;;15.00;99.90;;;;;;5060248;28;20242;-71
2022/09/03 01:43:00;;;;;;;1.40;0.90;;;15.00;99.90;;;;;;5062769;28;20218;-69
2022/09/03 01:45:49;;;;;;;1.60;1.10;;;15.00;99.90;;;;;;5059661;28;20647;-71
2022/09/03 01:48:25;;;;;;;1.58;1.20;;;15.00;99.90;;;;;;5062425;28;20277;-71
2022/09/03 01:51:16;;;;;;;1.73;1.00;;;14.90;99.90;;;;;;5060280;28;20196;-70
2022/09/03 01:54:03;;;;;;;4.13;1.25;;;14.90;99.90;;;;;;5063528;28;20343;-71
2022/09/03 01:57:07;;;;;;;1.38;1.00;;;14.90;99.90;;;;;;5063168;28;20206;-71
2022/09/03 01:59:42;;;;;;;1.50;1.00;;;14.90;99.90;;;;;;5060722;28;20584;-70
2022/09/03 02:02:19;;;;;;;1.23;0.93;;;14.90;99.90;;;;;;5060608;28;20211;-71
2022/09/03 02:05:00;;;;;;;1.83;1.17;;;14.80;99.90;;;;;;5058605;28;20747;-71
2022/09/03 02:07:33;;;;;;;2.13;0.90;;;14.80;99.90;;;;;;5064287;28;20226;-71
2022/09/03 02:10:00;;;;;;;1.70;1.00;;;14.80;99.90;;;;;;5058859;28;20647;-70
2022/09/03 02:12:32;;;;;;;2.67;1.40;;;14.80;99.90;;;;;;5063285;28;20287;-70
2022/09/03 02:15:03;;;;;;;1.95;1.05;;;14.70;99.90;;;;;;5061427;28;20255;-70
2022/09/03 02:17:33;;;;;;;5.47;1.10;;;14.70;99.90;;;;;;5059585;28;20240;-71
2022/09/03 02:20:04;;;;;;;1.67;0.93;;;14.70;99.90;;;;;;5048285;28;20317;-71
2022/09/03 02:22:31;;;;;;;3.33;1.10;;;14.70;99.90;;;;;;5062606;22;20232;-70
2022/09/03 02:24:56;;;;;;;2.40;1.00;;;14.60;99.90;;;;;;5027717;28;20759;-71
2022/09/03 02:27:22;;;;;;;4.00;1.17;;;14.60;99.90;;;;;;5027718;28;20220;-71
2022/09/03 02:29:47;;;;;;;2.33;1.20;;;14.60;99.90;;;;;;5027410;28;20721;-71
2022/09/03 02:32:14;;;;;;;1.95;1.02;;;14.60;99.90;;;;;;5023068;28;20205;-71
2022/09/03 02:34:41;;;;;;;3.15;1.50;;;14.70;99.90;;;;;;5020980;28;20213;-70
2022/09/03 02:37:15;;;;;;;1.88;1.10;;;14.60;99.90;;;;;;5019498;28;20282;-71
2022/09/03 02:39:41;;;;;;;4.63;1.00;;;14.60;99.90;;;;;;5023668;28;20207;-69
2022/09/03 02:42:09;;;;;;;2.40;1.10;;;14.60;99.90;;;;;;5029048;28;20209;-70
2022/09/03 02:44:39;;;;;;;1.27;1.13;;;14.50;99.90;;;;;;5023767;28;20719;-72
2022/09/03 02:47:06;;;;;;;2.17;1.00;;;14.60;99.90;;;;;;5022045;28;20220;-70
2022/09/03 02:49:32;;;;;;;2.65;0.95;;;14.50;99.90;;;;;;5025181;28;20246;-71
2022/09/03 02:52:10;;;;;;;4.97;1.60;;;14.50;99.90;;;;;;5024857;28;20690;-70
2022/09/03 02:54:40;;;;;;;2.08;1.05;;;14.50;99.90;;;;;;5019956;28;20219;-71
2022/09/03 02:57:07;;;;;;;1.40;0.80;;;14.50;99.90;;;;;;5020348;28;20703;-70
2022/09/03 02:59:33;;;;;;;2.08;1.20;;;14.50;99.90;;;;;;5026511;28;20257;-72
2022/09/03 03:01:59;;;;;;;1.65;1.00;;;14.50;99.90;;;;;;5018448;28;20212;-71
2022/09/03 03:04:25;;;;;;;3.00;1.13;;;14.50;99.90;;;;;;5024447;28;20255;-72
2022/09/03 03:06:50;;;;;;;2.58;1.20;;;14.40;99.90;;;;;;5019516;28;20219;-72
2022/09/03 03:09:17;;;;;;;2.40;1.30;;;14.40;99.90;;;;;;5023261;28;20227;-71
2022/09/03 03:11:43;;;;;;;1.93;1.30;;;14.40;99.90;;;;;;5017308;28;20208;-71
2022/09/03 03:14:09;;;;;;;1.58;1.10;;;14.40;99.90;;;;;;5020401;28;20219;-72
2022/09/03 03:16:34;;;;;;;2.07;0.80;;;14.30;99.90;;;;;;5022081;28;20266;-73
2022/09/03 03:19:00;;;;;;;1.17;1.00;;;14.30;99.90;;;;;;5020401;28;20219;-71
2022/09/03 03:21:26;;;;;;;1.25;0.90;;;14.30;99.90;;;;;;5022382;28;20291;-71
2022/09/03 03:23:52;;;;;;;1.83;1.13;;;14.30;99.90;;;;;;5023912;28;20195;-71
2022/09/03 03:26:19;;;;;;;3.72;1.15;;;14.20;99.90;;;;;;5018347;28;20228;-72
2022/09/03 03:28:49;;;;;;;2.33;1.10;;;14.20;99.90;;;;;;5021729;28;20671;-71
2022/09/03 03:31:17;;;;;;;1.88;1.20;;;14.20;99.90;;;;;;5019716;28;20236;-71
2022/09/03 03:33:43;;;;;;;2.67;1.40;;;14.20;99.90;;;;;;5020700;28;20223;-71
2022/09/03 03:36:12;;;;;;;1.42;1.23;;;14.20;99.90;;;;;;5016319;28;20192;-71
2022/09/03 03:38:38;;;;;;;1.20;0.90;;;14.20;99.90;;;;;;5022190;28;20260;-71
2022/09/03 03:41:20;;;;;;;2.87;1.23;;;14.20;99.90;;;;;;5018924;28;20299;-71
2022/09/03 03:43:46;;;;;;;2.00;1.15;;;14.10;99.90;;;;;;5019793;28;20243;-71
2022/09/03 03:46:13;;;;;;;2.95;1.20;;;14.10;99.90;;;;;;5019168;28;20296;-70
2022/09/03 03:48:40;;;;;;;2.03;1.17;;;14.10;99.90;;;;;;5022506;28;20655;-70
2022/09/03 03:51:07;;;;;;;3.35;1.20;;;14.10;99.90;;;;;;5023325;28;20209;-71
2022/09/03 03:53:35;;;;;;;2.85;1.50;;;14.10;99.90;;;;;;5022106;28;20184;-72
2022/09/03 03:56:03;;;;;;;2.13;1.33;;;14.00;99.90;;;;;;5019368;28;20224;-70
2022/09/03 03:58:31;;;;;;;1.77;1.23;;;14.00;99.90;;;;;;5021661;28;20293;-72
2022/09/03 04:01:07;;;;;;;6.13;1.40;;;14.10;99.90;;;;;;5018743;28;20212;-71
2022/09/03 04:03:34;;;;;;;1.33;1.08;;;14.00;99.90;;;;;;5022148;28;20214;-70
2022/09/03 04:06:00;;;;;;;2.70;1.43;;;14.00;99.90;;;;;;5019423;28;20181;-71
2022/09/03 04:08:27;;;;;;;4.22;1.30;;;14.10;99.90;;;;;;5022501;28;20708;-71
2022/09/03 04:10:53;;;;;;;4.80;1.42;;;14.00;99.90;;;;;;5018735;28;20213;-70
2022/09/03 04:13:19;;;;;;;2.17;1.50;;;14.10;99.90;;;;;;5020377;28;20598;-71
2022/09/03 04:15:44;;;;;;;4.68;1.73;;;14.10;99.90;;;;;;5018865;28;20224;-71
2022/09/03 04:18:10;;;;;;;2.27;1.33;;;14.10;99.90;;;;;;5018476;28;20302;-71
2022/09/03 04:20:36;;;;;;;4.35;1.55;;;14.10;99.90;;;;;;5023630;28;20187;-71
2022/09/03 04:23:03;;;;;;;1.60;1.20;;;14.10;99.90;;;;;;5018439;28;20319;-71
2022/09/03 04:25:28;;;;;;;3.43;1.40;;;14.10;99.90;;;;;;5021771;28;20211;-71
2022/09/03 04:27:54;;;;;;;2.80;1.40;;;14.00;99.90;;;;;;5020569;28;20228;-71
2022/09/03 04:30:20;;;;;;;3.10;1.40;;;14.10;99.90;;;;;;5020470;28;20177;-71
2022/09/03 04:32:52;;;;;;;3.53;1.40;;;14.10;99.90;;;;;;5018967;28;20204;-71
2022/09/03 04:35:25;;;;;;;4.00;1.50;;;14.10;99.90;;;;;;5017072;28;20209;-69
2022/09/03 04:37:53;;;;;;;4.90;1.27;;;14.10;99.90;;;;;;5015475;28;20208;-71
2022/09/03 04:40:19;;;;;;;3.97;1.40;;;14.00;99.90;;;;;;5021603;28;20262;-71
2022/09/03 04:42:45;;;;;;;2.00;1.50;;;14.00;99.90;;;;;;5020683;28;20221;-71
2022/09/03 04:45:11;;;;;;;3.73;1.47;;;14.00;99.90;;;;;;5028294;28;20189;-71
2022/09/03 04:47:36;;;;;;;3.45;1.73;;;14.10;99.90;;;;;;5029233;28;20275;-71
2022/09/03 04:50:04;;;;;;;2.63;1.13;;;14.70;99.90;;;;;;5021522;28;20307;-70
2022/09/03 04:52:30;;;;;;;2.80;1.88;;;15.50;99.90;;;;;;5025829;28;20963;-71
2022/09/03 04:54:56;;;;;;;3.10;1.25;;;16.40;99.90;;;;;;5026660;28;20679;-71
2022/09/03 04:57:22;;;;;;;2.70;1.30;;;17.30;99.90;;;;;;5027669;28;20177;-71
2022/09/03 04:59:48;;;;;;;3.50;1.42;;;17.50;99.90;;;;;;5018982;28;20181;-70
2022/09/03 05:02:14;;;;;;;4.97;2.00;;;17.40;99.90;;;;;;5025208;28;20215;-71
2022/09/03 05:04:40;;;;;;;3.00;1.70;;;17.90;99.90;;;;;;5024458;28;20231;-70
2022/09/03 05:07:06;;;;;;;2.67;1.42;;;17.20;99.90;;;;;;5027210;28;20216;-70
2022/09/03 05:09:31;;;;;;;7.03;1.77;;;16.30;99.90;;;;;;5017118;28;20296;-71
2022/09/03 05:11:57;;;;;;;4.30;2.15;;;15.70;99.90;;;;;;5027678;28;20215;-71
2022/09/03 05:14:23;;;;;;;4.90;1.50;;;15.70;99.90;;;;;;5028403;28;20232;-72
2022/09/03 05:16:49;;;;;;;2.30;1.48;;;15.50;99.90;;;;;;5011270;28;20205;-71
2022/09/03 05:19:14;;;;;;;2.35;1.50;;;15.30;99.90;;;;;;5017789;28;20768;-71
2022/09/03 05:21:41;;;;;;;2.75;1.58;;;15.80;99.90;;;;;;5025549;28;20224;-70
2022/09/03 05:24:07;;;;;;;2.05;1.58;;;17.50;99.90;;;;;;5023403;28;20177;-73
2022/09/03 05:26:37;;;;;;;3.13;1.85;;;18.80;99.90;;;;;;5002971;28;20177;-72
2022/09/03 05:29:07;;;;;;;3.67;1.58;;;19.60;99.90;;;;;;5022987;28;20216;-70
2022/09/03 05:31:35;;;;;;;3.60;2.35;;;20.40;99.90;;;;;;5027788;28;20303;-72
2022/09/03 05:34:02;;;;;;;3.83;1.80;;;20.70;99.90;;;;;;5018439;28;20206;-72
2022/09/03 05:36:31;;;;;;;2.67;1.88;;;21.00;99.90;;;;;;5011478;28;20208;-72
2022/09/03 05:38:58;;;;;;;3.05;1.98;;;21.80;99.90;;;;;;5021543;28;20555;-74
2022/09/03 05:41:24;;;;;;;2.47;1.45;;;22.50;99.90;;;;;;5003614;28;20282;-72
2022/09/03 05:43:54;;;;;;;4.28;2.20;;;22.40;99.90;;;;;;5001640;28;20212;-72
2022/09/03 05:46:25;;;;;;;6.70;1.90;;;23.00;99.90;;;;;;5012306;28;20205;-72
2022/09/03 05:48:51;;;;;;;6.60;2.65;;;23.30;99.90;;;;;;5015891;28;20260;-72
2022/09/03 05:51:17;;;;;;;2.90;2.20;;;23.70;99.90;;;;;;5002580;28;20239;-72
2022/09/03 05:53:45;;;;;;;2.25;1.65;;;24.20;99.90;;;;;;5032058;28;20180;-72
2022/09/03 05:56:18;;;;;;;5.47;1.73;;;24.60;99.90;;;;;;5024040;28;20717;-72
2022/09/03 05:58:48;;;;;;;2.97;1.67;;;23.90;99.90;;;;;;5011147;28;20687;-72
2022/09/03 06:01:16;;;;;;;4.90;2.10;;;24.30;99.90;;;;;;5010786;28;20220;-75
2022/09/03 06:03:43;;;;;;;2.63;1.65;;;22.50;99.90;;;;;;5027427;28;20216;-76
2022/09/03 06:06:09;;;;;;;5.88;2.00;;;20.80;99.90;;;;;;5025891;28;20204;-72
2022/09/03 06:08:40;;;;;;;2.95;1.85;;;19.60;99.90;;;;;;5027514;28;20573;-71
2022/09/03 06:11:06;;;;;;;4.28;1.80;;;19.60;99.90;;;;;;5025493;28;20209;-71
2022/09/03 06:13:32;;;;;;;3.03;2.47;;;18.40;99.90;;;;;;5028426;28;20266;-72
2022/09/03 06:15:59;;;;;;;5.25;4.18;;;18.20;99.90;;;;;;5021843;28;20209;-72
2022/09/03 06:18:29;;;;;;;2.05;1.33;;;18.10;99.90;;;;;;5031490;28;20275;-72
2022/09/03 06:20:56;;;;;;;2.80;1.58;;;18.00;99.90;;;;;;5023852;28;20181;-71
2022/09/03 06:23:22;;;;;;;6.90;3.30;;;18.20;99.90;;;;;;5026121;28;20258;-73
2022/09/03 06:25:58;;;;;;;2.58;1.75;;;18.50;99.90;;;;;;5021542;28;20264;-73
2022/09/03 06:28:25;;;;;;;4.70;3.10;;;18.00;99.90;;;;;;5024404;28;20265;-74
2022/09/03 06:30:51;;;;;;;2.45;1.60;;;17.30;99.90;;;;;;5026400;28;20231;-73
2022/09/03 06:33:17;;;;;;;2.55;2.03;;;16.60;99.90;;;;;;5026006;28;20212;-72
2022/09/03 06:35:43;;;;;;;4.85;1.60;;;16.50;99.90;;;;;;5028502;28;20200;-71
2022/09/03 06:38:11;;;;;;;5.43;2.17;;;16.20;99.90;;;;;;5028231;28;20725;-73
2022/09/03 06:40:37;;;;;;;5.07;2.33;;;16.40;99.90;;;;;;5024980;28;20776;-73
2022/09/03 06:43:02;;;;;;;2.35;1.40;;;16.30;99.90;;;;;;5026600;28;20225;-73
2022/09/03 06:45:31;;;;;;;3.95;2.45;;;16.20;99.90;;;;;;5030505;28;20212;-71
2022/09/03 06:47:57;;;;;;;4.38;1.77;;;16.30;99.90;;;;;;5025554;28;20201;-71
2022/09/03 06:50:22;;;;;;;4.85;1.90;;;16.50;99.90;;;;;;5025170;28;20201;-72
2022/09/03 06:52:55;;;;;;;3.90;2.17;;;16.30;99.90;;;;;;5022814;28;20208;-72
2022/09/03 06:55:21;;;;;;;5.22;2.45;;;16.00;99.90;;;;;;5024165;28;20204;-71
2022/09/03 06:57:47;;;;;;;3.92;1.80;;;16.10;99.90;;;;;;5024918;28;20589;-72
2022/09/03 07:00:14;;;;;;;2.80;1.67;;;16.30;99.90;;;;;;5023681;28;20647;-70
2022/09/03 07:02:40;;;;;;;4.30;2.17;;;16.40;99.90;;;;;;5030083;28;20192;-71
2022/09/03 07:05:06;;;;;;;2.92;1.63;;;16.60;99.90;;;;;;5023717;28;20255;-72
2022/09/03 07:07:32;;;;;;;2.30;1.83;;;16.60;99.90;;;;;;5024686;28;20218;-71
2022/09/03 07:09:57;;;;;;;2.55;1.80;;;16.80;99.90;;;;;;5020549;28;20749;-72
2022/09/03 07:12:23;;;;;;;2.90;2.00;;;17.10;99.90;;;;;;5028645;28;20704;-74
2022/09/03 07:14:49;;;;;;;3.05;1.90;;;17.30;99.90;;;;;;5025589;28;20176;-72
2022/09/03 07:17:15;;;;;;;6.72;2.10;;;17.50;99.90;;;;;;5027539;28;20203;-71
2022/09/03 07:19:41;;;;;;;3.90;1.90;;;17.50;99.90;;;;;;5029399;28;20208;-71
2022/09/03 07:22:09;;;;;;;7.20;3.67;;;17.50;99.90;;;;;;5024930;28;20227;-72
2022/09/03 07:24:36;;;;;;;5.55;2.10;;;17.80;99.90;;;;;;5021494;28;20224;-72
2022/09/03 07:27:04;;;;;;;4.07;2.03;;;18.20;99.90;;;;;;5025054;28;20262;-72
2022/09/03 07:29:29;;;;;;;4.28;2.53;;;18.00;99.90;;;;;;5027473;28;20236;-72
2022/09/03 07:31:55;;;;;;;3.95;1.90;;;18.10;99.90;;;;;;5023530;28;20711;-72
2022/09/03 07:34:25;;;;;;;3.22;1.95;;;17.80;99.90;;;;;;5027327;28;20283;-72
2022/09/03 07:36:51;;;;;;;2.30;1.63;;;17.90;99.90;;;;;;5028549;28;20736;-71
2022/09/03 07:39:17;;;;;;;2.67;2.00;;;17.70;99.90;;;;;;5025309;28;20181;-71
2022/09/03 07:41:47;;;;;;;2.70;1.80;;;17.90;99.90;;;;;;5023407;28;20224;-72
2022/09/03 07:44:18;;;;;;;2.88;2.00;;;18.00;99.90;;;;;;5025881;28;20293;-71
2022/09/03 07:46:46;;;;;;;2.67;1.75;;;18.10;99.90;;;;;;5022561;28;20223;-73
2022/09/03 07:49:11;;;;;;;4.18;1.58;;;18.40;99.90;;;;;;5024408;28;20833;-72
2022/09/03 07:51:38;;;;;;;5.45;2.50;;;18.70;99.90;;;;;;5027216;28;20270;-72
2022/09/03 07:54:09;;;;;;;3.28;2.28;;;18.60;99.90;;;;;;5027149;28;20647;-72
2022/09/03 07:56:36;;;;;;;3.63;2.00;;;18.30;99.90;;;;;;5027134;28;20642;-72
2022/09/03 07:59:03;;;;;;;2.45;2.00;;;17.90;99.90;;;;;;5021909;28;20236;-72
2022/09/03 08:01:32;;;;;;;3.50;1.67;;;17.70;99.90;;;;;;5026341;28;20287;-72
2022/09/03 08:03:58;;;;;;;4.22;1.80;;;17.70;99.90;;;;;;5026338;28;20235;-72
2022/09/03 08:06:26;;;;;;;5.15;3.00;;;17.60;99.90;;;;;;5029471;28;20220;-72
2022/09/03 08:09:00;;;;;;;5.88;2.60;;;18.00;99.90;;;;;;5025776;28;20235;-72
2022/09/03 08:11:27;;;;;;;5.50;2.20;;;18.00;99.90;;;;;;5025994;28;20216;-73
2022/09/03 08:14:00;;;;;;;6.00;1.90;;;18.10;99.90;;;;;;5022059;28;20602;-71
2022/09/03 08:16:26;;;;;;;5.88;2.15;;;18.00;99.90;;;;;;5027334;28;20224;-72
2022/09/03 08:18:52;;;;;;;5.35;1.88;;;18.10;99.90;;;;;;5025330;28;20266;-74
2022/09/03 08:21:19;;;;;;;3.10;1.95;;;18.20;99.90;;;;;;5024389;28;20212;-72
2022/09/03 08:23:49;;;;;;;4.78;2.75;;;18.20;99.90;;;;;;5043748;22;20243;-71
2022/09/03 08:26:16;;;;;;;3.50;2.60;;;18.30;99.90;;;;;;5015087;28;20213;-71
2022/09/03 08:28:43;;;;;;;2.83;1.98;;;18.20;99.90;;;;;;5008732;28;20212;-72
2022/09/03 08:31:12;;;;;;;2.55;1.70;;;18.50;99.90;;;;;;5008159;28;20216;-72
2022/09/03 08:33:41;;;;;;;2.83;1.35;;;19.80;99.90;;;;;;5003948;28;20744;-71
2022/09/03 08:36:09;;;;;;;2.80;1.40;;;20.70;99.90;;;;;;4981039;28;20178;-71
2022/09/03 08:38:35;;;;;;;3.10;1.50;;;21.20;99.90;;;;;;4984094;28;20789;-72
2022/09/03 08:41:05;;;;;;;5.65;1.77;;;21.20;99.90;;;;;;5001300;28;20240;-71
2022/09/03 08:43:37;;;;;;;2.42;1.60;;;21.80;99.90;;;;;;4990407;28;20270;-71
2022/09/03 08:46:03;;;;;;;3.92;1.95;;;22.70;99.90;;;;;;4982395;28;20217;-71
2022/09/03 08:48:30;;;;;;;4.38;2.25;;;23.70;99.90;;;;;;4986660;28;20300;-72
2022/09/03 08:51:01;;;;;;;3.90;2.10;;;23.90;99.90;;;;;;4984477;28;20182;-72
2022/09/03 08:53:45;;;;;;;4.68;1.90;;;22.00;99.90;;;;;;4986620;28;20218;-72
2022/09/03 08:56:24;;;;;;;5.40;2.13;;;22.80;99.90;;;;;;4983725;28;20244;-72
2022/09/03 08:58:50;;;;;;;3.35;1.80;;;23.50;99.90;;;;;;4988523;28;20206;-71
2022/09/03 09:01:46;;;;;;;2.20;1.55;;;22.90;99.90;;;;;;4983292;28;20204;-72
2022/09/03 09:04:17;;;;;;;3.83;1.95;;;22.80;99.90;;;;;;4983351;28;20209;-71
2022/09/03 09:06:52;;;;;;;3.33;1.88;;;22.70;99.90;;;;;;4987104;28;20209;-72
2022/09/03 09:09:57;;;;;;;3.63;2.00;;;22.60;99.90;;;;;;4986540;28;20205;-72
2022/09/03 09:12:38;;;;;;;2.80;1.50;;;21.90;99.90;;;;;;4982574;28;20197;-72
2022/09/03 09:15:26;;;;;;;2.88;1.60;;;22.10;99.90;;;;;;4987030;28;20182;-72
2022/09/03 09:18:02;;;;;;;6.38;2.80;;;22.10;99.90;;;;;;4987292;28;20188;-72
2022/09/03 09:20:46;;;;;;;3.00;2.40;;;22.00;99.90;;;;;;4983480;28;20241;-72
2022/09/03 09:23:36;;;;;;;5.28;1.98;;;21.70;99.90;;;;;;5000132;28;20386;-72
2022/09/03 09:26:07;;;;;;;4.45;1.67;;;21.50;99.90;;;;;;4986635;28;20213;-72
2022/09/03 09:28:36;;;;;;;4.25;1.55;;;21.30;99.90;;;;;;4985925;28;20491;-72
2022/09/03 09:31:03;;;;;;;2.75;1.70;;;21.40;99.90;;;;;;4989109;28;20201;-73
2022/09/03 09:33:31;;;;;;;5.30;2.67;;;21.50;99.90;;;;;;4989520;28;20264;-72
2022/09/03 09:36:03;;;;;;;3.42;2.00;;;22.10;99.90;;;;;;4991446;28;20240;-72
2022/09/03 09:38:35;;;;;;;4.80;2.85;;;22.00;99.90;;;;;;4989226;28;20202;-72
2022/09/03 09:41:18;;;;;;;3.28;2.20;;;21.80;99.90;;;;;;4988847;28;20592;-72
2022/09/03 09:43:46;;;;;;;3.83;1.48;;;21.80;99.90;;;;;;4990815;28;20214;-71
2022/09/03 09:46:28;;;;;;;2.30;1.55;;;21.60;99.90;;;;;;4986114;28;20221;-72
2022/09/03 09:48:56;;;;;;;6.55;1.45;;;22.20;99.90;;;;;;4989493;28;20634;-72
2022/09/03 09:51:32;;;;;;;2.40;1.30;;;22.10;99.90;;;;;;4991747;28;20714;-72
2022/09/03 09:54:03;;;;;;;3.70;1.20;;;22.00;99.90;;;;;;4987474;28;20213;-71
2022/09/03 09:56:29;;;;;;;1.95;1.08;;;21.60;99.90;;;;;;5013021;28;20208;-72
2022/09/03 09:59:07;;;;;;;2.88;1.50;;;22.00;99.90;;;;;;5007127;28;20213;-72
2022/09/03 10:01:35;;;;;;;4.45;1.40;;;21.80;99.90;;;;;;4999717;28;20205;-72
2022/09/03 10:04:31;;;;;;;1.90;1.25;;;21.90;99.90;;;;;;4998147;28;20217;-72
2022/09/03 10:07:18;;;;;;;3.65;1.50;;;22.20;99.90;;;;;;5010051;28;20224;-72
2022/09/03 10:09:44;;;;;;;3.90;1.40;;;22.50;99.90;;;;;;5003733;28;20233;-72
2022/09/03 10:12:29;;;;;;;1.77;1.30;;;22.30;99.90;;;;;;5002546;28;20206;-73
2022/09/03 10:15:02;;;;;;;1.95;0.95;;;22.20;99.90;;;;;;5017056;28;20558;-72
2022/09/03 10:17:51;;;;;;;2.88;1.15;;;22.10;99.90;;;;;;4986570;28;20198;-71
2022/09/03 10:20:43;;;;;;;2.20;0.93;;;21.80;99.90;;;;;;4984802;28;20203;-72
2022/09/03 10:23:15;;;;;;;2.88;1.10;;;21.80;99.90;;;;;;4987940;28;20630;-72
2022/09/03 10:25:56;;;;;;;2.38;1.27;;;22.30;99.90;;;;;;4993136;28;20699;-70
2022/09/03 10:28:26;;;;;;;2.28;1.17;;;22.40;99.90;;;;;;4987379;28;20224;-72
2022/09/03 10:31:14;;;;;;;3.13;0.90;;;21.90;99.90;;;;;;4988356;28;20364;-73
2022/09/03 10:34:09;;;;;;;3.05;0.80;;;21.70;99.90;;;;;;4986525;28;20213;-71
2022/09/03 10:37:07;;;;;;;2.08;1.02;;;21.70;99.90;;;;;;4986132;28;20703;-72
2022/09/03 10:39:50;;;;;;;2.20;1.20;;;21.80;99.90;;;;;;4994224;28;20214;-71
2022/09/03 10:42:56;;;;;;;2.70;1.25;;;21.50;99.90;;;;;;4993216;28;20186;-72
2022/09/03 10:45:31;;;;;;;6.03;1.23;;;21.40;99.90;;;;;;4984599;28;20172;-72
2022/09/03 10:48:09;;;;;;;1.98;1.20;;;21.00;99.90;;;;;;4988322;28;20200;-72
2022/09/03 10:51:19;;;;;;;1.75;1.15;;;21.00;99.90;;;;;;5008485;28;20201;-72
2022/09/03 10:54:23;;;;;;;2.75;1.25;;;21.20;99.90;;;;;;5002793;28;20239;-72
2022/09/03 10:57:12;;;;;;;6.07;1.17;;;21.20;99.90;;;;;;5002976;28;20201;-71
2022/09/03 10:59:57;;;;;;;3.75;1.35;;;21.50;99.90;;;;;;5008772;28;20201;-70
2022/09/03 11:02:55;;;;;;;1.90;1.10;;;21.70;99.90;;;;;;5006119;28;20220;-71
2022/09/03 11:05:37;;;;;;;1.45;1.00;;;21.80;99.90;;;;;;5007352;28;20216;-71
2022/09/03 11:08:10;;;;;;;5.00;1.30;;;21.60;99.90;;;;;;5006543;28;20736;-71
2022/09/03 11:10:42;;;;;;;2.72;1.20;;;21.50;99.90;;;;;;5011659;28;20213;-71
2022/09/03 11:13:23;;;;;;;5.05;1.33;;;21.70;99.90;;;;;;5014205;28;20217;-72
2022/09/03 11:15:59;;;;;;;2.85;1.25;;;21.70;99.90;;;;;;5017258;28;20244;-70
2022/09/03 11:18:47;;;;;;;6.28;1.33;;;21.80;99.90;;;;;;5007807;28;20263;-73
2022/09/03 11:21:15;;;;;;;1.70;1.00;;;22.00;99.90;;;;;;5013377;28;20212;-72
2022/09/03 11:23:44;;;;;;;2.78;0.90;;;22.00;99.90;;;;;;5014609;28;20702;-71
2022/09/03 11:26:13;;;;;;;2.92;1.10;;;22.20;99.90;;;;;;5014487;28;20232;-72
2022/09/03 11:29:01;;;;;;;4.97;1.20;;;22.40;99.90;;;;;;5017906;28;20213;-71
2022/09/03 11:31:56;;;;;;;2.65;1.23;;;22.40;99.90;;;;;;5013539;28;20197;-71
2022/09/03 11:34:25;;;;;;;1.67;1.20;;;22.40;99.90;;;;;;5011463;28;20267;-72
2022/09/03 11:36:51;;;;;;;1.85;1.20;;;22.10;99.90;;;;;;5017446;28;20244;-71
2022/09/03 11:39:32;;;;;;;1.60;1.30;;;22.10;99.90;;;;;;5014866;28;20199;-72
2022/09/03 11:42:03;;;;;;;2.65;1.52;;;22.20;99.90;;;;;;5013281;28;20264;-72
2022/09/03 11:44:43;;;;;;;4.18;1.45;;;22.20;99.90;;;;;;5018348;28;20209;-70
2022/09/03 11:47:16;;;;;;;2.58;1.20;;;22.40;99.90;;;;;;5014360;28;20254;-72
2022/09/03 11:50:03;;;;;;;2.67;1.13;;;22.40;99.90;;;;;;5013013;28;20718;-71
2022/09/03 11:52:31;;;;;;;3.58;1.70;;;22.30;99.90;;;;;;5012222;28;20285;-72
2022/09/03 11:54:57;;;;;;;6.43;1.15;;;21.70;99.90;;;;;;5010802;28;20248;-71
2022/09/03 11:57:30;;;;;;;4.53;1.33;;;21.50;99.90;;;;;;5015380;28;20922;-72
2022/09/03 12:00:20;;;;;;;2.05;1.30;;;21.60;99.90;;;;;;5010564;28;20679;-71
2022/09/03 12:02:59;;;;;;;3.03;2.10;;;21.70;99.90;;;;;;4994187;28;20345;-72
2022/09/03 12:05:43;;;;;;;3.08;1.60;;;21.80;99.90;;;;;;4986918;28;20201;-71
2022/09/03 12:08:11;;;;;;;2.78;1.40;;;21.80;99.90;;;;;;4988048;28;20593;-71
2022/09/03 12:10:53;;;;;;;5.40;1.30;;;21.70;99.90;;;;;;4984601;28;20267;-72
2022/09/03 12:13:40;;;;;;;2.30;1.00;;;21.90;99.90;;;;;;4985253;28;20210;-72
2022/09/03 12:17:02;;;;;;;2.95;1.42;;;21.70;99.90;;;;;;4987310;28;20891;-72
2022/09/03 12:19:38;;;;;;;4.95;1.48;;;21.80;99.90;;;;;;4948587;29;20257;-72
2022/09/03 12:22:04;;;;;;;2.80;1.15;;;21.80;99.90;;;;;;5013598;28;20258;-71
2022/09/03 12:24:32;;;;;;;1.95;1.67;;;21.90;99.90;;;;;;5009126;28;20205;-72
2022/09/03 12:26:59;;;;;;;2.17;1.33;;;22.10;99.90;;;;;;5015885;28;20184;-70
2022/09/03 12:29:27;;;;;;;1.85;1.48;;;22.20;99.90;;;;;;5015621;28;20299;-71
2022/09/03 12:31:55;;;;;;;3.53;1.50;;;22.30;99.90;;;;;;5013790;28;20693;-71
2022/09/03 12:34:22;;;;;;;2.38;1.52;;;22.40;99.90;;;;;;5012314;28;20292;-71
2022/09/03 12:36:53;;;;;;;3.53;1.85;;;22.00;99.20;;;;;;5005417;28;20584;-71
2022/09/03 12:39:24;;;;;;;3.00;1.40;;;21.90;99.80;;;;;;5014252;28;20211;-73
2022/09/03 12:42:06;;;;;;;2.00;1.20;;;22.00;99.30;;;;;;5011852;28;20173;-71
2022/09/03 12:44:40;;;;;;;2.10;1.30;;;22.10;99.30;;;;;;5015756;28;20204;-72
2022/09/03 12:47:20;;;;;;;4.03;1.30;;;22.20;98.70;;;;;;5014021;28;20223;-71
2022/09/03 12:49:48;;;;;;;4.10;1.40;;;22.60;98.80;;;;;;5010918;28;20220;-72
2022/09/03 12:52:16;;;;;;;4.00;1.40;;;22.60;98.70;;;;;;5008073;28;20205;-71
2022/09/03 12:54:51;;;;;;;1.48;1.20;;;22.70;97.80;;;;;;5004686;28;20262;-72
2022/09/03 12:57:24;;;;;;;2.63;1.70;;;22.40;97.50;;;;;;5010381;28;20347;-71
2022/09/03 12:59:56;;;;;;;2.50;1.10;;;22.50;97.40;;;;;;4988468;28;20208;-74
2022/09/03 13:02:41;;;;;;;1.88;1.05;;;22.00;97.30;;;;;;4983035;28;20257;-72
2022/09/03 13:05:15;;;;;;;2.00;1.20;;;22.10;97.90;;;;;;4988844;28;20209;-72
2022/09/03 13:07:50;;;;;;;2.95;1.63;;;22.30;98.00;;;;;;4992551;28;20201;-70
2022/09/03 13:10:27;;;;;;;3.30;2.60;;;22.30;97.60;;;;;;4987434;28;20206;-71
2022/09/03 13:12:58;;;;;;;2.83;1.88;;;22.30;98.00;;;;;;4989582;28;20729;-72
2022/09/03 13:15:25;;;;;;;1.75;1.20;;;22.10;97.60;;;;;;4991504;28;20576;-72
2022/09/03 13:18:12;;;;;;;2.90;1.67;;;22.20;97.70;;;;;;4993353;28;20174;-72
2022/09/03 13:20:49;;;;;;;3.42;1.80;;;22.10;97.60;;;;;;5016771;28;20335;-71